sensor_id;sensor_type;location;lat;lon;timestamp;pressure;altitude;pressure_sealevel;temperature;humidity
30708;BME280;17458;48.958;8.284;2023-02-10T00:01:03;102362.94;;;2.47;59.75
30708;BME280;17458;48.958;8.284;2023-02-10T00:03:48;102371.56;;;2.46;59.49
30708;BME280;17458;48.958;8.284;2023-02-10T00:06:32;102376.06;;;2.47;59.55
30708;BME280;17458;48.958;8.284;2023-02-10T00:09:16;102369.41;;;2.58;58.85
30708;BME280;17458;48.958;8.284;2023-02-10T00:12:00;102374.47;;;2.56;59.07
30708;BME280;17458;48.958;8.284;2023-02-10T00:14:44;102376.91;;;2.55;58.96
30708;BME280;17458;48.958;8.284;2023-02-10T00:17:28;102371.97;;;2.42;59.27
30708;BME280;17458;48.958;8.284;2023-02-10T00:20:12;102372.63;;;2.32;59.41
30708;BME280;17458;48.958;8.284;2023-02-10T00:22:56;102366.72;;;2.19;60.09
30708;BME280;17458;48.958;8.284;2023-02-10T00:25:40;102364.66;;;2.24;60.09
30708;BME280;17458;48.958;8.284;2023-02-10T00:28:24;102362.03;;;2.24;59.88
30708;BME280;17458;48.958;8.284;2023-02-10T00:31:13;102363.00;;;2.40;59.61
30708;BME280;17458;48.958;8.284;2023-02-10T00:33:57;102373.19;;;2.30;59.50
30708;BME280;17458;48.958;8.284;2023-02-10T00:36:41;102372.41;;;2.38;59.13
30708;BME280;17458;48.958;8.284;2023-02-10T00:39:26;102375.16;;;2.39;58.92
30708;BME280;17458;48.958;8.284;2023-02-10T00:42:10;102378.72;;;2.40;59.07
30708;BME280;17458;48.958;8.284;2023-02-10T00:44:54;102377.69;;;2.31;59.09
30708;BME280;17458;48.958;8.284;2023-02-10T00:47:39;102388.53;;;2.34;58.64
30708;BME280;17458;48.958;8.284;2023-02-10T00:50:23;102391.16;;;2.34;58.52
30708;BME280;17458;48.958;8.284;2023-02-10T00:53:07;102388.94;;;2.30;58.57
30708;BME280;17458;48.958;8.284;2023-02-10T00:55:51;102389.84;;;2.30;58.99
30708;BME280;17458;48.958;8.284;2023-02-10T00:58:44;102400.91;;;2.28;58.99
30708;BME280;17458;48.958;8.284;2023-02-10T01:01:28;102397.78;;;2.23;58.49
30708;BME280;17458;48.958;8.284;2023-02-10T01:04:12;102398.22;;;2.12;58.97
30708;BME280;17458;48.958;8.284;2023-02-10T01:06:56;102390.03;;;2.09;58.97
30708;BME280;17458;48.958;8.284;2023-02-10T01:09:40;102394.34;;;2.08;59.00
30708;BME280;17458;48.958;8.284;2023-02-10T01:12:24;102395.88;;;1.99;59.35
30708;BME280;17458;48.958;8.284;2023-02-10T01:15:08;102396.44;;;1.97;59.54
30708;BME280;17458;48.958;8.284;2023-02-10T01:17:55;102395.94;;;1.92;59.73
30708;BME280;17458;48.958;8.284;2023-02-10T01:20:42;102401.75;;;1.90;59.80
30708;BME280;17458;48.958;8.284;2023-02-10T01:23:26;102417.34;;;1.81;59.94
30708;BME280;17458;48.958;8.284;2023-02-10T01:26:10;102422.56;;;1.81;59.80
30708;BME280;17458;48.958;8.284;2023-02-10T01:28:55;102417.91;;;1.78;60.16
30708;BME280;17458;48.958;8.284;2023-02-10T01:31:39;102431.31;;;1.89;60.26
30708;BME280;17458;48.958;8.284;2023-02-10T01:34:23;102434.69;;;1.88;59.97
30708;BME280;17458;48.958;8.284;2023-02-10T01:37:07;102443.34;;;1.80;60.69
30708;BME280;17458;48.958;8.284;2023-02-10T01:39:51;102442.00;;;1.83;60.38
30708;BME280;17458;48.958;8.284;2023-02-10T01:42:35;102446.22;;;1.97;60.19
30708;BME280;17458;48.958;8.284;2023-02-10T01:45:27;102436.28;;;2.01;60.00
30708;BME280;17458;48.958;8.284;2023-02-10T01:48:12;102440.66;;;1.94;60.10
30708;BME280;17458;48.958;8.284;2023-02-10T01:51:00;102440.59;;;2.01;60.09
30708;BME280;17458;48.958;8.284;2023-02-10T01:53:45;102442.53;;;1.95;59.78
30708;BME280;17458;48.958;8.284;2023-02-10T01:56:29;102433.56;;;1.86;60.21
30708;BME280;17458;48.958;8.284;2023-02-10T01:59:13;102445.91;;;1.87;60.34
30708;BME280;17458;48.958;8.284;2023-02-10T02:01:59;102442.41;;;1.79;61.06
30708;BME280;17458;48.958;8.284;2023-02-10T02:04:52;102445.03;;;1.79;61.60
30708;BME280;17458;48.958;8.284;2023-02-10T02:07:37;102445.22;;;1.73;61.69
30708;BME280;17458;48.958;8.284;2023-02-10T02:10:27;102432.50;;;1.76;62.00
30708;BME280;17458;48.958;8.284;2023-02-10T02:13:40;102437.78;;;1.99;61.69
30708;BME280;17458;48.958;8.284;2023-02-10T02:23:38;102435.41;;;1.94;61.93
30708;BME280;17458;48.958;8.284;2023-02-10T02:26:55;102430.50;;;1.97;61.80
30708;BME280;17458;48.958;8.284;2023-02-10T02:33:47;102435.50;;;1.72;63.02
30708;BME280;17458;48.958;8.284;2023-02-10T02:39:35;102443.03;;;1.62;63.85
30708;BME280;17458;48.958;8.284;2023-02-10T02:42:25;102435.31;;;1.78;63.45
30708;BME280;17458;48.958;8.284;2023-02-10T02:45:10;102441.16;;;1.61;63.84
30708;BME280;17458;48.958;8.284;2023-02-10T02:48:10;102432.31;;;1.75;63.77
30708;BME280;17458;48.958;8.284;2023-02-10T03:00:12;102444.16;;;1.64;63.81
30708;BME280;17458;48.958;8.284;2023-02-10T03:02:59;102442.84;;;1.68;64.05
30708;BME280;17458;48.958;8.284;2023-02-10T03:05:43;102447.97;;;1.89;63.83
30708;BME280;17458;48.958;8.284;2023-02-10T03:08:29;102451.38;;;1.81;63.97
30708;BME280;17458;48.958;8.284;2023-02-10T03:11:15;102456.69;;;1.67;64.52
30708;BME280;17458;48.958;8.284;2023-02-10T03:13:59;102453.31;;;1.68;64.60
30708;BME280;17458;48.958;8.284;2023-02-10T03:16:43;102467.13;;;1.74;64.18
30708;BME280;17458;48.958;8.284;2023-02-10T03:19:28;102469.72;;;1.74;64.71
30708;BME280;17458;48.958;8.284;2023-02-10T03:22:12;102472.91;;;1.78;64.93
30708;BME280;17458;48.958;8.284;2023-02-10T03:24:56;102466.69;;;1.85;64.53
30708;BME280;17458;48.958;8.284;2023-02-10T03:27:40;102468.34;;;1.92;64.22
30708;BME280;17458;48.958;8.284;2023-02-10T03:30:24;102474.16;;;1.96;64.02
30708;BME280;17458;48.958;8.284;2023-02-10T03:33:08;102481.81;;;1.95;64.12
30708;BME280;17458;48.958;8.284;2023-02-10T03:35:52;102485.22;;;1.87;64.22
30708;BME280;17458;48.958;8.284;2023-02-10T03:38:39;102476.72;;;2.03;64.35
30708;BME280;17458;48.958;8.284;2023-02-10T03:41:23;102481.06;;;1.96;64.11
30708;BME280;17458;48.958;8.284;2023-02-10T03:44:07;102476.16;;;1.99;64.41
30708;BME280;17458;48.958;8.284;2023-02-10T03:46:51;102483.06;;;2.05;63.77
30708;BME280;17458;48.958;8.284;2023-02-10T03:49:35;102475.41;;;2.00;63.40
30708;BME280;17458;48.958;8.284;2023-02-10T03:52:19;102485.38;;;1.95;63.62
30708;BME280;17458;48.958;8.284;2023-02-10T03:55:03;102474.53;;;1.85;63.64
30708;BME280;17458;48.958;8.284;2023-02-10T03:57:47;102486.16;;;1.87;63.81
30708;BME280;17458;48.958;8.284;2023-02-10T04:00:31;102484.09;;;1.85;63.86
30708;BME280;17458;48.958;8.284;2023-02-10T04:03:15;102486.53;;;1.83;63.82
30708;BME280;17458;48.958;8.284;2023-02-10T04:06:00;102496.13;;;1.75;64.29
30708;BME280;17458;48.958;8.284;2023-02-10T04:08:44;102488.22;;;1.83;64.60
30708;BME280;17458;48.958;8.284;2023-02-10T04:11:27;102495.31;;;1.91;64.26
30708;BME280;17458;48.958;8.284;2023-02-10T04:14:11;102500.78;;;1.78;64.67
30708;BME280;17458;48.958;8.284;2023-02-10T04:16:55;102495.22;;;1.61;64.83
30708;BME280;17458;48.958;8.284;2023-02-10T04:19:39;102484.88;;;1.76;64.40
30708;BME280;17458;48.958;8.284;2023-02-10T04:22:23;102493.31;;;1.81;64.74
30708;BME280;17458;48.958;8.284;2023-02-10T04:25:07;102495.81;;;1.44;65.33
30708;BME280;17458;48.958;8.284;2023-02-10T04:27:51;102499.91;;;1.63;64.91
30708;BME280;17458;48.958;8.284;2023-02-10T04:30:35;102495.00;;;1.73;64.39
30708;BME280;17458;48.958;8.284;2023-02-10T04:33:20;102497.97;;;1.76;64.02
30708;BME280;17458;48.958;8.284;2023-02-10T04:36:04;102509.41;;;1.70;64.33
30708;BME280;17458;48.958;8.284;2023-02-10T04:38:48;102495.97;;;1.67;64.24
30708;BME280;17458;48.958;8.284;2023-02-10T04:41:32;102501.34;;;1.75;64.62
30708;BME280;17458;48.958;8.284;2023-02-10T04:44:16;102493.53;;;1.68;64.06
30708;BME280;17458;48.958;8.284;2023-02-10T04:47:00;102491.63;;;1.74;64.17
30708;BME280;17458;48.958;8.284;2023-02-10T04:49:44;102492.75;;;1.76;64.20
30708;BME280;17458;48.958;8.284;2023-02-10T04:52:28;102496.44;;;1.86;63.84
30708;BME280;17458;48.958;8.284;2023-02-10T04:55:12;102491.06;;;1.70;63.16
30708;BME280;17458;48.958;8.284;2023-02-10T04:57:56;102500.78;;;1.78;63.56
30708;BME280;17458;48.958;8.284;2023-02-10T05:00:40;102506.97;;;1.71;63.68
30708;BME280;17458;48.958;8.284;2023-02-10T05:03:23;102505.09;;;1.77;63.21
30708;BME280;17458;48.958;8.284;2023-02-10T05:06:11;102507.72;;;1.77;63.04
30708;BME280;17458;48.958;8.284;2023-02-10T05:08:55;102507.19;;;1.66;63.91
30708;BME280;17458;48.958;8.284;2023-02-10T05:11:39;102506.63;;;1.61;63.87
30708;BME280;17458;48.958;8.284;2023-02-10T05:14:23;102502.91;;;1.59;64.05
30708;BME280;17458;48.958;8.284;2023-02-10T05:17:07;102510.56;;;1.65;64.26
30708;BME280;17458;48.958;8.284;2023-02-10T05:19:51;102513.72;;;1.69;63.85
30708;BME280;17458;48.958;8.284;2023-02-10T05:22:36;102516.88;;;1.74;63.53
30708;BME280;17458;48.958;8.284;2023-02-10T05:25:20;102516.00;;;1.66;63.87
30708;BME280;17458;48.958;8.284;2023-02-10T05:28:04;102532.28;;;1.64;63.96
30708;BME280;17458;48.958;8.284;2023-02-10T05:30:48;102540.13;;;1.64;63.94
30708;BME280;17458;48.958;8.284;2023-02-10T05:33:32;102544.06;;;1.60;64.49
30708;BME280;17458;48.958;8.284;2023-02-10T05:36:18;102543.47;;;1.70;64.34
30708;BME280;17458;48.958;8.284;2023-02-10T05:39:02;102549.84;;;1.65;63.93
30708;BME280;17458;48.958;8.284;2023-02-10T05:42:05;102554.72;;;1.55;63.70
30708;BME280;17458;48.958;8.284;2023-02-10T05:44:49;102555.50;;;1.54;63.43
30708;BME280;17458;48.958;8.284;2023-02-10T05:47:33;102558.28;;;1.48;63.67
30708;BME280;17458;48.958;8.284;2023-02-10T05:50:18;102565.78;;;1.52;63.81
30708;BME280;17458;48.958;8.284;2023-02-10T05:53:01;102565.97;;;1.54;64.07
30708;BME280;17458;48.958;8.284;2023-02-10T05:55:46;102568.00;;;1.56;63.45
30708;BME280;17458;48.958;8.284;2023-02-10T05:58:30;102570.81;;;1.51;63.64
30708;BME280;17458;48.958;8.284;2023-02-10T06:01:16;102579.25;;;1.48;63.69
30708;BME280;17458;48.958;8.284;2023-02-10T06:04:00;102581.31;;;1.51;63.80
30708;BME280;17458;48.958;8.284;2023-02-10T06:06:44;102573.63;;;1.52;63.81
30708;BME280;17458;48.958;8.284;2023-02-10T06:09:29;102580.38;;;1.50;64.06
30708;BME280;17458;48.958;8.284;2023-02-10T06:12:13;102581.84;;;1.41;63.57
30708;BME280;17458;48.958;8.284;2023-02-10T06:15:00;102580.00;;;1.47;63.31
30708;BME280;17458;48.958;8.284;2023-02-10T06:17:44;102582.78;;;1.41;63.13
30708;BME280;17458;48.958;8.284;2023-02-10T06:20:28;102587.66;;;1.31;63.35
30708;BME280;17458;48.958;8.284;2023-02-10T06:23:12;102591.41;;;1.19;63.81
30708;BME280;17458;48.958;8.284;2023-02-10T06:25:56;102592.34;;;1.20;63.52
30708;BME280;17458;48.958;8.284;2023-02-10T06:28:42;102597.75;;;1.21;64.70
30708;BME280;17458;48.958;8.284;2023-02-10T06:31:26;102601.50;;;1.23;64.46
30708;BME280;17458;48.958;8.284;2023-02-10T06:34:10;102598.50;;;1.27;64.61
30708;BME280;17458;48.958;8.284;2023-02-10T06:36:54;102605.78;;;1.30;64.41
30708;BME280;17458;48.958;8.284;2023-02-10T06:39:38;102606.94;;;1.39;64.07
30708;BME280;17458;48.958;8.284;2023-02-10T06:42:24;102603.75;;;1.34;63.99
30708;BME280;17458;48.958;8.284;2023-02-10T06:45:08;102605.44;;;1.34;63.94
30708;BME280;17458;48.958;8.284;2023-02-10T06:47:52;102613.09;;;1.25;64.42
30708;BME280;17458;48.958;8.284;2023-02-10T06:50:36;102618.31;;;1.32;64.43
30708;BME280;17458;48.958;8.284;2023-02-10T06:53:21;102615.34;;;1.29;64.53
30708;BME280;17458;48.958;8.284;2023-02-10T06:56:05;102618.31;;;1.32;64.45
30708;BME280;17458;48.958;8.284;2023-02-10T06:58:49;102623.75;;;1.34;64.91
30708;BME280;17458;48.958;8.284;2023-02-10T07:01:33;102621.13;;;1.41;64.71
30708;BME280;17458;48.958;8.284;2023-02-10T07:04:17;102620.94;;;1.47;64.34
30708;BME280;17458;48.958;8.284;2023-02-10T07:07:02;102610.13;;;1.36;65.28
30708;BME280;17458;48.958;8.284;2023-02-10T07:09:46;102611.44;;;1.54;65.01
30708;BME280;17458;48.958;8.284;2023-02-10T07:12:30;102615.50;;;1.59;64.87
30708;BME280;17458;48.958;8.284;2023-02-10T07:15:14;102614.78;;;1.46;65.45
30708;BME280;17458;48.958;8.284;2023-02-10T07:17:58;102618.50;;;1.41;66.42
30708;BME280;17458;48.958;8.284;2023-02-10T07:20:42;102615.53;;;1.52;65.36
30708;BME280;17458;48.958;8.284;2023-02-10T07:23:26;102602.63;;;1.47;66.39
30708;BME280;17458;48.958;8.284;2023-02-10T07:26:10;102610.63;;;1.69;65.64
30708;BME280;17458;48.958;8.284;2023-02-10T07:28:56;102613.28;;;1.62;65.60
30708;BME280;17458;48.958;8.284;2023-02-10T07:31:40;102614.22;;;1.49;66.77
30708;BME280;17458;48.958;8.284;2023-02-10T07:34:24;102617.53;;;1.69;65.83
30708;BME280;17458;48.958;8.284;2023-02-10T07:37:09;102613.47;;;1.35;66.60
30708;BME280;17458;48.958;8.284;2023-02-10T07:39:53;102615.50;;;1.59;65.46
30708;BME280;17458;48.958;8.284;2023-02-10T07:42:37;102618.50;;;1.27;66.08
30708;BME280;17458;48.958;8.284;2023-02-10T07:45:43;102643.16;;;1.15;66.54
30708;BME280;17458;48.958;8.284;2023-02-10T07:48:27;102636.84;;;1.34;66.52
30708;BME280;17458;48.958;8.284;2023-02-10T07:51:12;102631.38;;;1.89;65.19
30708;BME280;17458;48.958;8.284;2023-02-10T07:53:56;102632.13;;;1.95;64.42
30708;BME280;17458;48.958;8.284;2023-02-10T07:56:40;102632.13;;;1.88;64.72
30708;BME280;17458;48.958;8.284;2023-02-10T07:59:24;102635.91;;;1.48;66.66
30708;BME280;17458;48.958;8.284;2023-02-10T08:02:10;102620.72;;;1.73;65.96
30708;BME280;17458;48.958;8.284;2023-02-10T08:04:55;102627.28;;;1.70;66.13
30708;BME280;17458;48.958;8.284;2023-02-10T08:07:39;102628.34;;;2.00;65.10
30708;BME280;17458;48.958;8.284;2023-02-10T08:10:24;102626.47;;;2.06;65.51
30708;BME280;17458;48.958;8.284;2023-02-10T08:13:08;102620.25;;;2.13;65.26
30708;BME280;17458;48.958;8.284;2023-02-10T08:15:53;102613.88;;;2.18;65.84
30708;BME280;17458;48.958;8.284;2023-02-10T08:18:38;102612.63;;;2.07;66.36
30708;BME280;17458;48.958;8.284;2023-02-10T08:21:22;102625.53;;;1.99;67.19
30708;BME280;17458;48.958;8.284;2023-02-10T08:24:13;102631.31;;;2.18;67.05
30708;BME280;17458;48.958;8.284;2023-02-10T08:27:01;102632.88;;;2.45;66.22
30708;BME280;17458;48.958;8.284;2023-02-10T08:29:45;102631.19;;;2.46;66.31
30708;BME280;17458;48.958;8.284;2023-02-10T08:32:29;102616.91;;;2.88;65.32
30708;BME280;17458;48.958;8.284;2023-02-10T08:35:13;102627.63;;;3.12;64.64
30708;BME280;17458;48.958;8.284;2023-02-10T08:37:57;102626.38;;;2.79;65.26
30708;BME280;17458;48.958;8.284;2023-02-10T08:40:41;102628.53;;;3.20;64.12
30708;BME280;17458;48.958;8.284;2023-02-10T08:43:25;102640.19;;;3.38;63.73
30708;BME280;17458;48.958;8.284;2023-02-10T08:46:09;102632.09;;;3.20;64.24
30708;BME280;17458;48.958;8.284;2023-02-10T08:48:54;102640.53;;;3.18;64.82
30708;BME280;17458;48.958;8.284;2023-02-10T08:51:38;102642.34;;;3.26;64.34
30708;BME280;17458;48.958;8.284;2023-02-10T08:54:22;102639.31;;;3.53;63.47
30708;BME280;17458;48.958;8.284;2023-02-10T08:57:06;102639.19;;;3.67;63.43
30708;BME280;17458;48.958;8.284;2023-02-10T08:59:51;102636.16;;;3.71;62.95
30708;BME280;17458;48.958;8.284;2023-02-10T09:02:35;102647.72;;;3.58;62.94
30708;BME280;17458;48.958;8.284;2023-02-10T09:05:19;102642.16;;;4.09;62.07
30708;BME280;17458;48.958;8.284;2023-02-10T09:08:04;102638.25;;;3.89;62.06
30708;BME280;17458;48.958;8.284;2023-02-10T09:10:51;102629.72;;;4.31;61.64
30708;BME280;17458;48.958;8.284;2023-02-10T09:13:35;102631.81;;;4.26;61.97
30708;BME280;17458;48.958;8.284;2023-02-10T09:16:19;102641.47;;;4.50;61.50
30708;BME280;17458;48.958;8.284;2023-02-10T09:19:04;102638.78;;;4.41;60.97
30708;BME280;17458;48.958;8.284;2023-02-10T09:21:48;102646.81;;;4.11;61.64
30708;BME280;17458;48.958;8.284;2023-02-10T09:24:33;102636.13;;;4.10;61.30
30708;BME280;17458;48.958;8.284;2023-02-10T09:27:18;102635.72;;;4.30;61.96
30708;BME280;17458;48.958;8.284;2023-02-10T09:30:03;102636.78;;;4.79;60.53
30708;BME280;17458;48.958;8.284;2023-02-10T09:32:47;102641.72;;;4.76;60.67
30708;BME280;17458;48.958;8.284;2023-02-10T09:35:32;102646.59;;;4.17;61.63
30708;BME280;17458;48.958;8.284;2023-02-10T09:38:16;102638.78;;;4.57;61.00
30708;BME280;17458;48.958;8.284;2023-02-10T09:41:19;102649.69;;;4.84;60.69
30708;BME280;17458;48.958;8.284;2023-02-10T09:44:24;102653.56;;;5.28;58.92
30708;BME280;17458;48.958;8.284;2023-02-10T09:53:28;102656.25;;;5.37;58.85
30708;BME280;17458;48.958;8.284;2023-02-10T09:56:17;102656.25;;;5.61;58.73
30708;BME280;17458;48.958;8.284;2023-02-10T09:59:05;102666.19;;;5.15;59.85
30708;BME280;17458;48.958;8.284;2023-02-10T10:02:03;102661.81;;;5.64;58.53
30708;BME280;17458;48.958;8.284;2023-02-10T10:04:56;102669.75;;;5.88;58.54
30708;BME280;17458;48.958;8.284;2023-02-10T10:07:48;102676.16;;;6.08;57.80
30708;BME280;17458;48.958;8.284;2023-02-10T10:10:39;102680.22;;;6.13;57.95
30708;BME280;17458;48.958;8.284;2023-02-10T10:13:25;102672.63;;;6.16;57.51
30708;BME280;17458;48.958;8.284;2023-02-10T10:19:27;102663.69;;;6.74;57.07
30708;BME280;17458;48.958;8.284;2023-02-10T10:31:28;102662.13;;;6.50;56.86
30708;BME280;17458;48.958;8.284;2023-02-10T10:34:18;102663.34;;;6.36;57.60
30708;BME280;17458;48.958;8.284;2023-02-10T10:37:12;102654.06;;;6.57;56.05
30708;BME280;17458;48.958;8.284;2023-02-10T10:40:03;102652.81;;;6.54;55.74
30708;BME280;17458;48.958;8.284;2023-02-10T10:42:50;102668.78;;;6.47;55.84
30708;BME280;17458;48.958;8.284;2023-02-10T10:45:40;102667.72;;;6.45;55.48
30708;BME280;17458;48.958;8.284;2023-02-10T10:48:29;102666.19;;;6.81;54.40
30708;BME280;17458;48.958;8.284;2023-02-10T10:51:15;102655.44;;;7.23;54.18
30708;BME280;17458;48.958;8.284;2023-02-10T10:54:01;102659.09;;;7.51;53.14
30708;BME280;17458;48.958;8.284;2023-02-10T10:56:48;102652.16;;;7.17;54.40
30708;BME280;17458;48.958;8.284;2023-02-10T10:59:46;102645.00;;;7.24;53.25
30708;BME280;17458;48.958;8.284;2023-02-10T11:02:32;102642.88;;;6.94;53.59
30708;BME280;17458;48.958;8.284;2023-02-10T11:05:16;102641.16;;;7.03;52.96
30708;BME280;17458;48.958;8.284;2023-02-10T11:08:29;102632.75;;;7.25;52.35
30708;BME280;17458;48.958;8.284;2023-02-10T11:11:15;102632.88;;;7.26;51.69
30708;BME280;17458;48.958;8.284;2023-02-10T11:14:00;102632.38;;;7.83;50.98
30708;BME280;17458;48.958;8.284;2023-02-10T11:16:56;102633.75;;;7.89;50.77
30708;BME280;17458;48.958;8.284;2023-02-10T11:19:41;102631.41;;;7.56;50.56
30708;BME280;17458;48.958;8.284;2023-02-10T11:22:26;102633.78;;;7.80;49.68
30708;BME280;17458;48.958;8.284;2023-02-10T11:25:30;102634.34;;;8.22;48.74
30708;BME280;17458;48.958;8.284;2023-02-10T11:28:20;102629.97;;;8.23;48.96
30708;BME280;17458;48.958;8.284;2023-02-10T11:31:19;102633.75;;;8.16;48.21
30708;BME280;17458;48.958;8.284;2023-02-10T11:34:30;102633.22;;;8.01;48.60
30708;BME280;17458;48.958;8.284;2023-02-10T11:40:24;102631.38;;;8.28;48.64
30708;BME280;17458;48.958;8.284;2023-02-10T11:43:12;102631.78;;;8.78;48.02
30708;BME280;17458;48.958;8.284;2023-02-10T11:46:00;102629.13;;;8.60;48.03
30708;BME280;17458;48.958;8.284;2023-02-10T11:48:55;102638.38;;;8.55;47.76
30708;BME280;17458;48.958;8.284;2023-02-10T11:51:51;102622.19;;;8.24;47.51
30708;BME280;17458;48.958;8.284;2023-02-10T11:54:38;102621.81;;;8.11;48.29
30708;BME280;17458;48.958;8.284;2023-02-10T12:00:50;102623.38;;;8.09;48.40
30708;BME280;17458;48.958;8.284;2023-02-10T12:03:50;102611.06;;;8.09;48.01
30708;BME280;17458;48.958;8.284;2023-02-10T12:06:55;102603.78;;;8.53;47.92
30708;BME280;17458;48.958;8.284;2023-02-10T12:12:42;102609.84;;;8.33;46.88
30708;BME280;17458;48.958;8.284;2023-02-10T12:15:34;102596.91;;;8.74;46.35
30708;BME280;17458;48.958;8.284;2023-02-10T12:30:53;102591.09;;;8.97;45.06
30708;BME280;17458;48.958;8.284;2023-02-10T12:40:04;102587.09;;;9.20;43.71
30708;BME280;17458;48.958;8.284;2023-02-10T12:49:45;102576.19;;;9.46;44.26
30708;BME280;17458;48.958;8.284;2023-02-10T12:52:41;102573.88;;;9.90;43.05
30708;BME280;17458;48.958;8.284;2023-02-10T12:58:40;102567.75;;;9.71;42.11
30708;BME280;17458;48.958;8.284;2023-02-10T13:01:35;102573.59;;;9.97;43.03
30708;BME280;17458;48.958;8.284;2023-02-10T13:04:37;102565.03;;;10.20;42.54
30708;BME280;17458;48.958;8.284;2023-02-10T13:07:43;102568.88;;;10.44;42.34
30708;BME280;17458;48.958;8.284;2023-02-10T13:10:36;102562.72;;;9.74;43.44
30708;BME280;17458;48.958;8.284;2023-02-10T13:13:25;102560.06;;;9.84;43.11
30708;BME280;17458;48.958;8.284;2023-02-10T13:16:20;102563.94;;;10.18;44.31
30708;BME280;17458;48.958;8.284;2023-02-10T13:22:00;102561.81;;;9.93;43.22
30708;BME280;17458;48.958;8.284;2023-02-10T13:25:00;102560.88;;;10.03;43.92
30708;BME280;17458;48.958;8.284;2023-02-10T13:28:28;102565.72;;;10.38;43.08
30708;BME280;17458;48.958;8.284;2023-02-10T13:31:20;102561.69;;;9.04;44.05
30708;BME280;17458;48.958;8.284;2023-02-10T13:34:29;102560.34;;;9.87;44.00
30708;BME280;17458;48.958;8.284;2023-02-10T13:37:26;102561.53;;;10.11;43.33
30708;BME280;17458;48.958;8.284;2023-02-10T13:40:19;102559.22;;;9.54;44.45
30708;BME280;17458;48.958;8.284;2023-02-10T13:43:04;102557.28;;;9.23;44.62
30708;BME280;17458;48.958;8.284;2023-02-10T13:45:51;102560.91;;;9.44;44.39
30708;BME280;17458;48.958;8.284;2023-02-10T13:48:37;102559.97;;;9.92;43.62
30708;BME280;17458;48.958;8.284;2023-02-10T13:51:34;102555.34;;;10.20;43.21
30708;BME280;17458;48.958;8.284;2023-02-10T13:54:28;102552.75;;;9.71;44.46
30708;BME280;17458;48.958;8.284;2023-02-10T13:57:27;102552.69;;;10.10;43.98
30708;BME280;17458;48.958;8.284;2023-02-10T14:00:16;102563.16;;;10.39;42.84
30708;BME280;17458;48.958;8.284;2023-02-10T14:03:25;102553.97;;;10.66;43.02
30708;BME280;17458;48.958;8.284;2023-02-10T14:06:08;102553.84;;;10.54;43.29
30708;BME280;17458;48.958;8.284;2023-02-10T14:09:02;102551.19;;;10.04;43.82
30708;BME280;17458;48.958;8.284;2023-02-10T14:11:47;102559.28;;;10.15;43.72
30708;BME280;17458;48.958;8.284;2023-02-10T14:14:37;102560.75;;;10.12;43.42
30708;BME280;17458;48.958;8.284;2023-02-10T14:17:25;102560.00;;;10.23;43.53
30708;BME280;17458;48.958;8.284;2023-02-10T14:20:20;102560.66;;;10.30;42.56
30708;BME280;17458;48.958;8.284;2023-02-10T14:23:07;102564.91;;;10.28;42.59
30708;BME280;17458;48.958;8.284;2023-02-10T14:26:00;102561.56;;;10.41;42.48
30708;BME280;17458;48.958;8.284;2023-02-10T14:28:54;102563.97;;;10.38;42.43
30708;BME280;17458;48.958;8.284;2023-02-10T14:31:39;102560.50;;;10.29;42.66
30708;BME280;17458;48.958;8.284;2023-02-10T14:34:27;102550.56;;;10.37;42.06
30708;BME280;17458;48.958;8.284;2023-02-10T14:37:18;102553.84;;;10.44;41.72
30708;BME280;17458;48.958;8.284;2023-02-10T14:40:03;102553.34;;;10.28;42.78
30708;BME280;17458;48.958;8.284;2023-02-10T14:42:48;102544.28;;;10.46;42.85
30708;BME280;17458;48.958;8.284;2023-02-10T14:45:32;102542.72;;;10.38;42.76
30708;BME280;17458;48.958;8.284;2023-02-10T14:48:20;102542.06;;;10.30;42.14
30708;BME280;17458;48.958;8.284;2023-02-10T14:51:18;102535.66;;;9.68;43.52
30708;BME280;17458;48.958;8.284;2023-02-10T14:54:13;102539.09;;;9.97;43.82
30708;BME280;17458;48.958;8.284;2023-02-10T14:57:01;102535.56;;;10.37;42.90
30708;BME280;17458;48.958;8.284;2023-02-10T14:59:55;102535.94;;;9.91;44.05
30708;BME280;17458;48.958;8.284;2023-02-10T15:02:47;102535.22;;;10.54;43.26
30708;BME280;17458;48.958;8.284;2023-02-10T15:05:36;102533.81;;;10.17;43.76
30708;BME280;17458;48.958;8.284;2023-02-10T15:08:24;102526.09;;;10.51;42.89
30708;BME280;17458;48.958;8.284;2023-02-10T15:11:14;102531.28;;;10.39;43.19
30708;BME280;17458;48.958;8.284;2023-02-10T15:13:59;102523.84;;;10.45;43.36
30708;BME280;17458;48.958;8.284;2023-02-10T15:16:45;102512.81;;;10.51;42.99
30708;BME280;17458;48.958;8.284;2023-02-10T15:19:30;102523.75;;;10.23;43.53
30708;BME280;17458;48.958;8.284;2023-02-10T15:22:35;102526.34;;;10.13;44.12
30708;BME280;17458;48.958;8.284;2023-02-10T15:28:25;102527.19;;;9.92;43.99
30708;BME280;17458;48.958;8.284;2023-02-10T15:33:59;102520.53;;;10.07;44.02
30708;BME280;17458;48.958;8.284;2023-02-10T15:37:04;102517.06;;;9.98;44.29
30708;BME280;17458;48.958;8.284;2023-02-10T15:40:00;102520.91;;;10.12;43.99
30708;BME280;17458;48.958;8.284;2023-02-10T15:42:55;102519.63;;;10.37;43.22
30708;BME280;17458;48.958;8.284;2023-02-10T15:45:41;102522.53;;;9.79;44.06
30708;BME280;17458;48.958;8.284;2023-02-10T15:48:25;102520.13;;;10.03;43.40
30708;BME280;17458;48.958;8.284;2023-02-10T15:51:37;102522.44;;;10.18;43.14
30708;BME280;17458;48.958;8.284;2023-02-10T15:54:25;102515.22;;;10.17;43.25
30708;BME280;17458;48.958;8.284;2023-02-10T15:57:12;102527.97;;;10.01;43.84
30708;BME280;17458;48.958;8.284;2023-02-10T15:59:56;102524.91;;;10.07;43.46
30708;BME280;17458;48.958;8.284;2023-02-10T16:02:41;102528.75;;;10.00;43.50
30708;BME280;17458;48.958;8.284;2023-02-10T16:05:25;102520.28;;;9.94;43.64
30708;BME280;17458;48.958;8.284;2023-02-10T16:08:20;102526.63;;;9.76;44.17
30708;BME280;17458;48.958;8.284;2023-02-10T16:11:05;102522.25;;;9.66;44.40
30708;BME280;17458;48.958;8.284;2023-02-10T16:13:49;102516.25;;;9.69;43.95
30708;BME280;17458;48.958;8.284;2023-02-10T16:16:36;102516.38;;;9.60;44.13